Time;durP1;ratioP1;P1;durP2;ratioP2;P2;SDS_P1;SDS_P2;PMS_P1;PMS_P2;Temp;Humidity;BMP_temperature;BMP_pressure;BME280_temperature;BME280_humidity;BME280_pressure;Samples;Min_cycle;Max_cycle;Signal;HPM_P1;HPM_P2
2022/03/22 00:01:43;;;;;;;;;;;;;;;5.27;46.80;101029.50;4350976;33;19942;-71
2022/03/22 00:04:10;;;;;;;;;;;;;;;5.22;47.06;101037.19;4354394;32;19943;-69
2022/03/22 00:06:36;;;;;;;;;;;;;;;5.09;47.33;101033.16;4355849;32;19951;-70
2022/03/22 00:09:02;;;;;;;;;;;;;;;4.93;47.99;101038.47;4356967;32;20351;-70
2022/03/22 00:11:28;;;;;;;;;;;;;;;4.73;48.92;101033.41;4343499;32;20272;-69
2022/03/22 00:13:55;;;;;;;;;;;;;;;4.65;49.34;101022.72;4355373;32;19957;-72
2022/03/22 00:16:21;;;;;;;;;;;;;;;4.70;49.42;101023.03;4333979;33;19939;-70
2022/03/22 00:18:48;;;;;;;;;;;;;;;4.63;50.63;101031.88;4342714;32;19975;-68
2022/03/22 00:32:18;;;;;;;;;;;;;;;4.09;52.41;101029.47;4344030;32;19986;-69
2022/03/22 00:34:54;;;;;;;;;;;;;;;3.77;53.73;101020.28;4354026;32;19943;-69
2022/03/22 00:37:42;;;;;;;;;;;;;;;3.69;54.95;101028.22;4355473;32;20378;-69
2022/03/22 00:40:28;;;;;;;;;;;;;;;3.58;55.34;101022.16;4354619;32;19939;-69
2022/03/22 00:43:19;;;;;;;;;;;;;;;3.51;56.63;101021.09;4353518;32;19943;-68
2022/03/22 00:46:04;;;;;;;;;;;;;;;3.41;57.52;101031.00;4350011;33;19954;-72
2022/03/22 00:48:48;;;;;;;;;;;;;;;3.31;58.06;101020.44;4345919;32;19997;-70
2022/03/22 00:51:35;;;;;;;;;;;;;;;3.24;57.58;101024.72;4356219;32;19959;-69
2022/03/22 00:54:20;;;;;;;;;;;;;;;3.19;58.76;101022.50;4345980;32;19959;-70
2022/03/22 00:57:05;;;;;;;;;;;;;;;3.12;60.43;101021.41;4341557;33;19939;-70
2022/03/22 01:00:01;;;;;;;;;;;;;;;3.08;63.06;101025.41;4343138;33;20365;-70
2022/03/22 01:02:49;;;;;;;;;;;;;;;3.32;61.05;101010.59;4341860;33;19987;-73
2022/03/22 01:05:35;;;;;;;;;;;;;;;3.35;58.80;100962.37;4344056;33;19940;-71
2022/03/22 01:08:20;;;;;;;;;;;;;;;3.85;57.75;101007.00;4342382;33;20075;-74
2022/03/22 01:11:07;;;;;;;;;;;;;;;3.74;58.12;101015.28;4352584;32;20030;-72
2022/03/22 01:13:51;;;;;;;;;;;;;;;3.52;59.08;101008.62;4355152;32;19947;-73
2022/03/22 01:16:30;;;;;;;;;;;;;;;3.35;60.57;101004.97;4348964;33;19951;-70
2022/03/22 01:18:56;;;;;;;;;;;;;;;3.30;62.32;101002.78;4357828;32;19939;-70
2022/03/22 01:21:23;;;;;;;;;;;;;;;3.30;63.06;101002.78;4357136;32;19931;-70
2022/03/22 01:23:50;;;;;;;;;;;;;;;3.24;64.03;101004.22;4355946;32;19953;-70
2022/03/22 01:26:16;;;;;;;;;;;;;;;3.21;62.74;101007.19;4341301;32;19978;-70
2022/03/22 01:28:42;;;;;;;;;;;;;;;3.18;65.33;101004.84;4357503;32;19951;-71
2022/03/22 01:31:08;;;;;;;;;;;;;;;3.16;64.52;101009.50;4357326;32;19935;-73
2022/03/22 01:33:35;;;;;;;;;;;;;;;3.12;65.42;101004.62;4355485;32;20128;-72
2022/03/22 01:36:02;;;;;;;;;;;;;;;3.60;62.34;101006.84;4355217;32;19941;-74
2022/03/22 01:38:28;;;;;;;;;;;;;;;3.34;63.37;100955.37;4355606;32;19939;-72
2022/03/22 01:40:54;;;;;;;;;;;;;;;3.58;62.85;101006.16;4356526;32;19965;-72
2022/03/22 01:43:20;;;;;;;;;;;;;;;3.76;62.05;101002.63;4347293;32;19939;-72
2022/03/22 01:45:48;;;;;;;;;;;;;;;3.58;61.70;101006.16;4342259;33;20059;-72
2022/03/22 01:48:14;;;;;;;;;;;;;;;3.61;62.13;101005.03;4339947;33;20227;-74
2022/03/22 01:50:41;;;;;;;;;;;;;;;3.77;60.65;101004.31;4340753;33;20272;-73
2022/03/22 01:53:09;;;;;;;;;;;;;;;3.84;59.92;101001.84;4353486;33;19961;-72
2022/03/22 01:55:36;;;;;;;;;;;;;;;3.78;61.02;101004.13;4343350;32;19993;-72
2022/03/22 01:58:03;;;;;;;;;;;;;;;3.70;61.98;101003.22;4342334;33;19943;-71
2022/03/22 02:00:29;;;;;;;;;;;;;;;3.59;61.88;101002.50;4353367;32;19977;-73
2022/03/22 02:06:00;;;;;;;;;;;;;;;3.46;62.09;101007.38;4324367;33;20326;-71
2022/03/22 02:08:30;;;;;;;;;;;;;;;3.35;62.96;101002.31;4339626;32;20357;-71
2022/03/22 02:11:00;;;;;;;;;;;;;;;3.25;63.70;101005.88;4357005;32;19935;-72
2022/03/22 02:13:31;;;;;;;;;;;;;;;3.16;64.43;101001.50;4342736;33;19935;-72
2022/03/22 02:15:58;;;;;;;;;;;;;;;3.09;66.15;101000.44;4354092;32;19953;-73
2022/03/22 02:18:31;;;;;;;;;;;;;;;3.02;66.68;100999.37;4343517;32;19935;-72
2022/03/22 02:20:58;;;;;;;;;;;;;;;2.96;68.62;101005.31;4342136;33;20336;-72
2022/03/22 02:23:34;;;;;;;;;;;;;;;2.91;69.23;100998.59;4341391;33;20359;-72
2022/03/22 02:26:00;;;;;;;;;;;;;;;2.90;69.95;101001.41;4342946;32;19947;-73
2022/03/22 02:28:27;;;;;;;;;;;;;;;2.81;69.90;100997.00;4355802;32;20051;-72
2022/03/22 02:30:54;;;;;;;;;;;;;;;2.77;69.14;101001.78;4356500;32;19939;-72
2022/03/22 02:33:20;;;;;;;;;;;;;;;2.80;69.32;101001.47;4355794;32;19957;-72
2022/03/22 02:35:46;;;;;;;;;;;;;;;2.71;70.42;100997.91;4356180;32;19939;-74
2022/03/22 02:38:12;;;;;;;;;;;;;;;2.62;71.37;101004.13;4354464;32;20008;-72
2022/03/22 02:40:39;;;;;;;;;;;;;;;2.53;72.79;101003.19;4356334;32;19972;-73
2022/03/22 02:43:05;;;;;;;;;;;;;;;2.45;73.34;100996.94;4355979;32;19974;-72
2022/03/22 02:45:32;;;;;;;;;;;;;;;2.39;75.94;101001.03;4356145;32;19982;-72
2022/03/22 02:47:58;;;;;;;;;;;;;;;2.29;76.45;100997.59;4352997;32;19938;-73
2022/03/22 02:50:25;;;;;;;;;;;;;;;2.17;77.44;101005.75;4356219;32;20032;-71
2022/03/22 02:52:51;;;;;;;;;;;;;;;2.05;78.11;101006.09;4355488;32;20308;-70
2022/03/22 02:55:18;;;;;;;;;;;;;;;1.92;79.83;101001.94;4340987;33;19966;-71
2022/03/22 02:57:44;;;;;;;;;;;;;;;1.79;82.13;101002.25;4355077;32;20318;-71
2022/03/22 03:00:11;;;;;;;;;;;;;;;1.68;82.69;101004.25;4354200;32;19945;-71
2022/03/22 03:02:45;;;;;;;;;;;;;;;1.54;85.08;101002.87;4342291;32;19965;-71
2022/03/22 03:05:11;;;;;;;;;;;;;;;1.44;84.65;101009.00;4356194;32;19935;-70
2022/03/22 03:07:38;;;;;;;;;;;;;;;1.35;88.07;101004.56;4354690;32;19970;-73
2022/03/22 03:10:05;;;;;;;;;;;;;;;1.25;92.13;101003.72;4351518;32;19943;-71
2022/03/22 03:12:32;;;;;;;;;;;;;;;1.14;92.05;101006.53;4355379;32;19951;-70
2022/03/22 03:14:58;;;;;;;;;;;;;;;1.05;94.44;101006.41;4356163;32;19939;-70
2022/03/22 03:17:24;;;;;;;;;;;;;;;0.95;94.49;100997.56;4342212;32;20329;-70
2022/03/22 03:19:50;;;;;;;;;;;;;;;0.87;96.00;100997.44;4353927;32;20076;-72
2022/03/22 03:22:18;;;;;;;;;;;;;;;0.80;96.68;101001.59;4354356;32;19942;-71
2022/03/22 03:24:44;;;;;;;;;;;;;;;0.79;96.49;101008.72;4349543;32;20310;-71
2022/03/22 03:27:10;;;;;;;;;;;;;;;0.78;96.01;101007.03;4354394;32;19934;-72
2022/03/22 03:29:36;;;;;;;;;;;;;;;0.78;98.71;101006.22;4354397;32;19988;-72
2022/03/22 03:32:02;;;;;;;;;;;;;;;0.72;99.33;101008.44;4352295;32;19943;-74
2022/03/22 03:34:29;;;;;;;;;;;;;;;0.68;100.00;101006.19;4355258;32;19949;-72
2022/03/22 03:36:55;;;;;;;;;;;;;;;0.62;100.00;101002.25;4354321;32;19931;-72
2022/03/22 03:39:21;;;;;;;;;;;;;;;0.61;100.00;101005.91;4354343;32;19949;-72
2022/03/22 03:41:55;;;;;;;;;;;;;;;0.58;100.00;101014.13;4354221;33;19934;-72
2022/03/22 03:47:07;;;;;;;;;;;;;;;0.48;100.00;101007.94;4354191;33;19939;-72
2022/03/22 03:49:35;;;;;;;;;;;;;;;0.40;100.00;101011.31;4354157;33;19939;-71
2022/03/22 03:52:02;;;;;;;;;;;;;;;0.34;100.00;101017.97;4352424;33;19976;-73
2022/03/22 03:54:28;;;;;;;;;;;;;;;0.28;100.00;101013.19;4355193;33;19958;-72
2022/03/22 03:56:55;;;;;;;;;;;;;;;0.25;100.00;101010.81;4355368;33;19936;-72
2022/03/22 03:59:21;;;;;;;;;;;;;;;0.24;100.00;101009.16;4354406;33;19990;-72
2022/03/22 04:01:48;;;;;;;;;;;;;;;0.25;100.00;101016.13;4355790;33;20284;-72
2022/03/22 04:04:14;;;;;;;;;;;;;;;0.25;100.00;101020.59;4354681;33;19953;-73
2022/03/22 04:06:40;;;;;;;;;;;;;;;0.29;100.00;101017.53;4342941;33;20365;-72
2022/03/22 04:09:07;;;;;;;;;;;;;;;0.30;100.00;101023.66;4341106;33;19939;-72
2022/03/22 04:11:33;;;;;;;;;;;;;;;0.29;100.00;101025.50;4341134;33;20293;-71
2022/03/22 04:13:59;;;;;;;;;;;;;;;0.29;100.00;101022.84;4328129;33;19975;-71
2022/03/22 04:16:26;;;;;;;;;;;;;;;0.27;100.00;101022.16;4338801;33;19984;-71
2022/03/22 04:18:59;;;;;;;;;;;;;;;0.23;100.00;101018.06;4350481;33;19947;-72
2022/03/22 04:21:24;;;;;;;;;;;;;;;0.19;100.00;101014.00;4355045;33;20345;-71
2022/03/22 04:23:51;;;;;;;;;;;;;;;0.17;100.00;101023.91;4355263;33;19938;-71
2022/03/22 04:26:18;;;;;;;;;;;;;;;0.15;100.00;101020.56;4354263;33;19962;-74
2022/03/22 04:34:13;;;;;;;;;;;;;;;0.12;100.00;101020.81;4352155;33;20648;-72
2022/03/22 04:36:40;;;;;;;;;;;;;;;0.16;100.00;101022.22;4354477;33;19952;-71
2022/03/22 04:39:06;;;;;;;;;;;;;;;0.21;100.00;101022.66;4355639;33;19983;-71
2022/03/22 04:41:32;;;;;;;;;;;;;;;0.31;100.00;101026.19;4355304;33;19975;-71
2022/03/22 04:43:58;;;;;;;;;;;;;;;0.38;100.00;101021.19;4354692;33;19961;-73
2022/03/22 04:46:25;;;;;;;;;;;;;;;0.45;100.00;101016.19;4352563;33;19959;-71
2022/03/22 04:48:52;;;;;;;;;;;;;;;0.53;100.00;101025.16;4341794;33;20369;-71
2022/03/22 04:56:49;;;;;;;;;;;;;;;0.82;100.00;101028.84;4357498;32;19943;-71
2022/03/22 04:59:19;;;;;;;;;;;;;;;0.89;100.00;101029.94;4357652;32;20087;-70
2022/03/22 05:01:45;;;;;;;;;;;;;;;0.93;100.00;101023.41;4355792;32;19953;-72
2022/03/22 05:04:12;;;;;;;;;;;;;;;0.98;100.00;101033.63;4356707;32;19940;-71
2022/03/22 05:06:38;;;;;;;;;;;;;;;1.02;100.00;101035.84;4498121;27;19985;-70
2022/03/22 05:09:05;;;;;;;;;;;;;;;1.08;100.00;101029.13;4369677;32;19951;-72
2022/03/22 05:11:31;;;;;;;;;;;;;;;1.14;100.00;101022.44;4371104;32;19991;-71
2022/03/22 05:13:58;;;;;;;;;;;;;;;1.20;100.00;101027.22;4373086;32;19991;-71
2022/03/22 05:16:24;;;;;;;;;;;;;;;1.28;100.00;101024.69;4364930;32;19965;-72
2022/03/22 05:18:52;;;;;;;;;;;;;;;1.42;100.00;101032.22;4367048;32;19969;-71
2022/03/22 05:21:18;;;;;;;;;;;;;;;1.71;100.00;101036.66;4358993;32;19944;-73
2022/03/22 05:23:45;;;;;;;;;;;;;;;2.11;96.35;101038.22;4355078;32;19958;-71
2022/03/22 05:26:12;;;;;;;;;;;;;;;2.42;91.94;101039.78;4356501;32;19951;-70
2022/03/22 05:28:39;;;;;;;;;;;;;;;2.68;87.46;101031.94;4364522;32;19943;-70
2022/03/22 05:31:05;;;;;;;;;;;;;;;2.88;83.96;101033.50;4369980;32;19955;-69
2022/03/22 05:33:32;;;;;;;;;;;;;;;3.07;80.65;101040.50;4369477;32;19969;-73
2022/03/22 05:35:58;;;;;;;;;;;;;;;3.17;79.89;101028.94;4369362;32;19955;-71
2022/03/22 05:38:25;;;;;;;;;;;;;;;3.29;78.47;101035.72;4357537;32;20251;-71
2022/03/22 05:40:52;;;;;;;;;;;;;;;3.39;77.21;101038.31;4361315;32;19959;-72
2022/03/22 05:43:18;;;;;;;;;;;;;;;3.45;76.50;101038.53;4361319;32;19955;-72
2022/03/22 05:45:46;;;;;;;;;;;;;;;3.54;75.06;101036.78;4360971;32;19965;-73
2022/03/22 05:48:12;;;;;;;;;;;;;;;3.63;74.32;101046.47;4361663;32;19963;-72
2022/03/22 05:50:39;;;;;;;;;;;;;;;3.73;72.73;101040.22;4365074;32;20022;-72
2022/03/22 05:53:05;;;;;;;;;;;;;;;3.81;71.66;101034.94;4363294;32;19969;-73
2022/03/22 05:55:31;;;;;;;;;;;;;;;3.86;71.10;101043.34;4364772;32;19983;-72
2022/03/22 05:57:57;;;;;;;;;;;;;;;3.92;70.27;101044.53;4364806;32;19962;-73
2022/03/22 06:00:23;;;;;;;;;;;;;;;4.00;70.51;101042.75;4366454;32;20054;-71
2022/03/22 06:02:50;;;;;;;;;;;;;;;4.02;69.84;101044.41;4360698;32;20000;-72
2022/03/22 06:05:16;;;;;;;;;;;;;;;4.06;69.82;101041.28;4365585;32;20313;-72
2022/03/22 06:07:42;;;;;;;;;;;;;;;4.10;69.30;101047.13;4374658;32;19980;-73
2022/03/22 06:10:12;;;;;;;;;;;;;;;4.21;68.14;101049.50;4377449;32;20056;-71
2022/03/22 06:12:39;;;;;;;;;;;;;;;4.27;68.09;101053.41;4363744;32;19949;-72
2022/03/22 06:15:16;;;;;;;;;;;;;;;4.34;67.70;101054.41;4366709;32;19986;-72
2022/03/22 06:17:50;;;;;;;;;;;;;;;4.40;67.78;101053.78;4376834;32;19947;-72
2022/03/22 06:20:17;;;;;;;;;;;;;;;4.48;67.75;101051.19;4376724;32;19953;-73
2022/03/22 06:22:45;;;;;;;;;;;;;;;4.57;67.38;101052.03;4365654;32;20095;-72
2022/03/22 06:25:12;;;;;;;;;;;;;;;4.67;66.68;101055.38;4380270;32;19987;-72
2022/03/22 06:27:40;;;;;;;;;;;;;;;4.81;65.61;101055.78;4376384;32;20357;-72
2022/03/22 06:30:08;;;;;;;;;;;;;;;4.94;64.50;101055.31;4378016;32;20001;-73
2022/03/22 06:32:42;;;;;;;;;;;;;;;5.05;63.91;101057.69;4375028;32;19946;-73
2022/03/22 06:35:10;;;;;;;;;;;;;;;5.14;63.62;101062.03;4385549;32;19981;-71
2022/03/22 06:37:37;;;;;;;;;;;;;;;5.25;62.36;101058.22;4371101;32;20266;-71
2022/03/22 06:40:04;;;;;;;;;;;;;;;5.36;61.70;101057.91;4372923;32;19957;-73
2022/03/22 06:42:30;;;;;;;;;;;;;;;5.42;61.38;101054.53;4380763;32;19989;-71
2022/03/22 06:44:56;;;;;;;;;;;;;;;5.53;60.95;101060.56;4386163;32;20003;-71
2022/03/22 06:47:23;;;;;;;;;;;;;;;5.60;60.64;101061.56;4385784;32;19960;-70
2022/03/22 06:49:49;;;;;;;;;;;;;;;5.66;60.45;101050.22;4372199;32;19947;-71
2022/03/22 06:52:15;;;;;;;;;;;;;;;5.76;60.50;101058.91;4373753;32;19965;-70
2022/03/22 06:54:41;;;;;;;;;;;;;;;5.85;59.48;101058.88;4369045;32;19997;-74
2022/03/22 06:57:08;;;;;;;;;;;;;;;5.93;59.43;101050.84;4382176;32;20852;-71
2022/03/22 06:59:34;;;;;;;;;;;;;;;5.96;59.99;101055.88;4385711;32;19947;-71
2022/03/22 07:02:01;;;;;;;;;;;;;;;6.09;59.19;101045.50;4383222;32;19971;-72
2022/03/22 07:04:27;;;;;;;;;;;;;;;6.17;59.05;101053.53;4386114;32;19961;-71
2022/03/22 07:06:54;;;;;;;;;;;;;;;6.48;56.41;101050.06;4383016;32;20004;-73
2022/03/22 07:09:21;;;;;;;;;;;;;;;6.63;56.33;101058.19;4371209;32;19936;-71
2022/03/22 07:11:52;;;;;;;;;;;;;;;6.80;55.14;101048.25;4385477;32;19943;-71
2022/03/22 07:14:19;;;;;;;;;;;;;;;6.79;55.35;101054.59;4364462;32;19953;-70
2022/03/22 07:16:48;;;;;;;;;;;;;;;7.04;53.91;101054.50;4359285;32;20002;-71
2022/03/22 07:19:16;;;;;;;;;;;;;;;7.09;53.79;101047.56;4374975;32;19943;-71
2022/03/22 07:21:42;;;;;;;;;;;;;;;7.22;53.55;101063.06;4365207;32;19967;-70
2022/03/22 07:24:09;;;;;;;;;;;;;;;7.18;53.61;101056.41;4380022;32;19947;-71
2022/03/22 07:26:36;;;;;;;;;;;;;;;7.27;53.05;101054.50;4377773;32;20074;-70
2022/03/22 07:29:02;;;;;;;;;;;;;;;7.60;50.85;101052.38;4368755;32;19961;-70
2022/03/22 07:31:29;;;;;;;;;;;;;;;7.74;50.35;101056.12;4368268;32;19951;-70
2022/03/22 07:33:56;;;;;;;;;;;;;;;7.97;50.19;101058.75;4370610;32;19954;-70
2022/03/22 07:36:22;;;;;;;;;;;;;;;8.10;49.90;101060.81;4370408;32;20386;-71
2022/03/22 07:38:49;;;;;;;;;;;;;;;8.18;49.39;101052.69;4370484;32;20316;-71
2022/03/22 07:41:15;;;;;;;;;;;;;;;8.25;48.69;101060.84;4359532;32;19944;-73
2022/03/22 07:43:41;;;;;;;;;;;;;;;8.29;48.65;101064.78;4381339;32;19994;-70
2022/03/22 07:46:08;;;;;;;;;;;;;;;8.47;48.36;101060.94;4377048;32;20380;-71
2022/03/22 07:48:34;;;;;;;;;;;;;;;8.46;47.41;101070.03;4370038;32;19947;-70
2022/03/22 07:57:09;;;;;;;;;;;;;;;8.64;47.92;101057.03;4375671;32;20029;-70
2022/03/22 07:59:54;;;;;;;;;;;;;;;8.66;48.02;101067.59;4370505;32;19950;-71
2022/03/22 08:02:20;;;;;;;;;;;;;;;8.90;47.25;101055.69;4368840;32;19947;-72
2022/03/22 08:04:48;;;;;;;;;;;;;;;8.92;47.24;101056.34;4356920;32;19944;-72
2022/03/22 08:07:20;;;;;;;;;;;;;;;9.03;46.69;101055.84;4362724;32;19951;-71
2022/03/22 08:09:47;;;;;;;;;;;;;;;9.17;45.92;101050.63;4382631;32;19953;-72
2022/03/22 08:12:13;;;;;;;;;;;;;;;9.17;45.66;101040.69;4376604;32;19965;-73
2022/03/22 08:14:40;;;;;;;;;;;;;;;9.13;44.19;101044.78;4345879;32;19947;-71
2022/03/22 08:17:07;;;;;;;;;;;;;;;9.09;44.25;101049.72;4376116;32;19959;-71
2022/03/22 08:19:33;;;;;;;;;;;;;;;9.12;43.89;101050.34;4376465;32;19952;-70
2022/03/22 08:21:59;;;;;;;;;;;;;;;9.23;43.50;101047.16;4365061;32;20049;-71
2022/03/22 08:24:26;;;;;;;;;;;;;;;9.30;43.16;101045.34;4374139;32;19939;-70
2022/03/22 08:26:52;;;;;;;;;;;;;;;9.26;42.29;101052.16;4373247;32;20016;-72
2022/03/22 08:29:18;;;;;;;;;;;;;;;9.42;42.30;101046.53;4365000;32;20808;-70
2022/03/22 08:31:45;;;;;;;;;;;;;;;9.57;42.39;101053.69;4379758;32;19939;-70
2022/03/22 08:34:11;;;;;;;;;;;;;;;9.66;41.56;101055.22;4367760;32;20370;-70
2022/03/22 08:36:37;;;;;;;;;;;;;;;9.86;41.22;101043.78;4373812;32;19988;-73
2022/03/22 08:39:04;;;;;;;;;;;;;;;9.88;41.57;101047.94;4369398;32;19939;-70
2022/03/22 08:41:34;;;;;;;;;;;;;;;9.92;41.00;101048.38;4361626;32;19963;-70
2022/03/22 08:44:00;;;;;;;;;;;;;;;9.99;40.40;101049.28;4387681;32;19953;-72
2022/03/22 08:46:26;;;;;;;;;;;;;;;10.16;40.25;101045.25;4375080;32;19958;-71
2022/03/22 08:48:53;;;;;;;;;;;;;;;10.18;40.07;101040.50;4384578;32;19988;-71
2022/03/22 08:51:21;;;;;;;;;;;;;;;10.34;39.81;101035.84;4386562;32;20752;-70
2022/03/22 08:53:48;;;;;;;;;;;;;;;10.41;39.17;101042.09;4383898;32;20504;-71
2022/03/22 08:56:15;;;;;;;;;;;;;;;10.53;39.46;101043.19;4381164;32;19946;-72
2022/03/22 08:58:41;;;;;;;;;;;;;;;10.63;39.51;101039.31;4386052;32;19952;-72
2022/03/22 09:01:08;;;;;;;;;;;;;;;10.66;39.87;101046.97;4383986;32;19934;-72
2022/03/22 09:03:35;;;;;;;;;;;;;;;10.70;39.11;101046.34;4386132;32;19964;-72
2022/03/22 09:06:16;;;;;;;;;;;;;;;10.67;39.41;101045.94;4364352;32;19958;-72
2022/03/22 09:08:43;;;;;;;;;;;;;;;10.82;39.23;101043.94;4364436;32;20352;-74
2022/03/22 09:11:10;;;;;;;;;;;;;;;10.80;38.74;101050.53;4375692;32;19938;-70
2022/03/22 09:13:37;;;;;;;;;;;;;;;10.79;38.43;101044.34;4378119;32;19939;-71
2022/03/22 09:16:05;;;;;;;;;;;;;;;10.86;39.11;101044.34;4378812;32;19938;-71
2022/03/22 09:18:31;;;;;;;;;;;;;;;10.98;38.97;101045.44;4377549;32;19992;-73
2022/03/22 09:23:31;;;;;;;;;;;;;;;10.92;38.62;101042.72;4378062;32;19939;-71
2022/03/22 09:25:58;;;;;;;;;;;;;;;11.07;39.03;101030.75;4362631;32;19934;-70
2022/03/22 09:28:24;;;;;;;;;;;;;;;11.17;38.77;101038.44;4374040;32;19942;-71
2022/03/22 09:30:51;;;;;;;;;;;;;;;11.27;38.87;101043.41;4373506;32;19956;-73
2022/03/22 09:33:17;;;;;;;;;;;;;;;11.11;38.13;101031.16;4364242;32;19968;-71
2022/03/22 09:35:44;;;;;;;;;;;;;;;11.27;38.24;101029.94;4383224;32;19941;-71
2022/03/22 09:38:10;;;;;;;;;;;;;;;11.37;38.60;101030.34;4369202;32;19952;-70
2022/03/22 09:40:36;;;;;;;;;;;;;;;11.47;38.04;101026.44;4371255;32;19945;-71
2022/03/22 09:43:03;;;;;;;;;;;;;;;11.39;38.20;101014.81;4359530;32;19973;-72
2022/03/22 09:45:30;;;;;;;;;;;;;;;11.51;38.26;101020.41;4372252;32;20052;-71
2022/03/22 09:47:59;;;;;;;;;;;;;;;11.43;37.33;101024.13;4383528;32;20015;-72
2022/03/22 09:53:12;;;;;;;;;;;;;;;11.73;38.16;101014.81;4400763;32;20297;-71
2022/03/22 09:55:39;;;;;;;;;;;;;;;11.93;37.87;101012.94;4397542;32;19941;-71
2022/03/22 09:58:06;;;;;;;;;;;;;;;11.92;37.94;101015.88;4361041;32;19996;-71
2022/03/22 10:00:33;;;;;;;;;;;;;;;12.11;37.77;101009.59;4384194;32;20027;-73
2022/03/22 10:02:59;;;;;;;;;;;;;;;12.26;37.88;101012.03;4364746;32;19950;-74
2022/03/22 10:05:29;;;;;;;;;;;;;;;12.19;36.98;101011.25;4376075;32;19934;-71
2022/03/22 10:08:06;;;;;;;;;;;;;;;11.96;37.24;101012.50;4363185;32;19942;-71
2022/03/22 10:10:34;;;;;;;;;;;;;;;11.94;37.25;101008.38;4362826;32;19991;-71
2022/03/22 10:13:01;;;;;;;;;;;;;;;12.17;37.20;101007.91;4362353;32;20069;-73
2022/03/22 10:15:29;;;;;;;;;;;;;;;12.06;37.18;101000.44;4372145;32;19982;-71
2022/03/22 10:18:04;;;;;;;;;;;;;;;12.18;37.54;101004.16;4370201;32;19949;-74
2022/03/22 10:20:32;;;;;;;;;;;;;;;12.38;37.28;101004.13;4375388;32;20316;-73
2022/03/22 10:22:58;;;;;;;;;;;;;;;12.28;37.05;100998.31;4355528;32;19939;-74
2022/03/22 10:25:32;;;;;;;;;;;;;;;12.26;37.08;100995.84;4361254;32;19993;-72
2022/03/22 10:28:03;;;;;;;;;;;;;;;12.27;36.85;101000.19;4384292;32;19939;-72
2022/03/22 10:30:30;;;;;;;;;;;;;;;12.39;37.14;100986.03;4374937;32;20285;-75
2022/03/22 10:32:56;;;;;;;;;;;;;;;12.66;37.35;100995.66;4369054;32;19938;-73
2022/03/22 10:35:25;;;;;;;;;;;;;;;12.67;36.61;100991.94;4362804;32;20305;-72
2022/03/22 10:37:52;;;;;;;;;;;;;;;12.89;37.06;100983.47;4377768;32;19993;-72
2022/03/22 10:40:24;;;;;;;;;;;;;;;12.76;36.61;100983.56;4378073;32;19938;-72
2022/03/22 10:42:52;;;;;;;;;;;;;;;12.70;36.75;100986.09;4376802;32;20538;-73
2022/03/22 10:45:18;;;;;;;;;;;;;;;12.83;36.88;100984.38;4363367;32;19964;-72
2022/03/22 10:47:44;;;;;;;;;;;;;;;12.85;36.85;100972.28;4374370;32;19943;-73
2022/03/22 10:50:11;;;;;;;;;;;;;;;13.06;36.88;100973.81;4367887;32;19930;-72
2022/03/22 10:52:48;;;;;;;;;;;;;;;13.09;37.08;100967.97;4357212;32;19940;-74
2022/03/22 10:55:19;;;;;;;;;;;;;;;13.38;36.98;100960.28;4357535;32;20088;-72
2022/03/22 10:57:53;;;;;;;;;;;;;;;13.51;36.78;100959.34;4369613;32;20026;-73
2022/03/22 11:00:20;;;;;;;;;;;;;;;13.59;36.45;100960.94;4372830;32;20001;-72
2022/03/22 11:02:51;;;;;;;;;;;;;;;13.61;36.62;100958.84;4360981;32;19938;-72
2022/03/22 11:05:19;;;;;;;;;;;;;;;13.92;36.44;100951.66;4377063;32;19948;-72
2022/03/22 11:07:47;;;;;;;;;;;;;;;14.04;36.20;100958.00;4379973;32;20006;-74
2022/03/22 11:10:15;;;;;;;;;;;;;;;13.72;35.89;100960.81;4384694;32;19935;-77
2022/03/22 11:12:42;;;;;;;;;;;;;;;13.80;36.53;100952.41;4374799;32;19972;-73
2022/03/22 11:15:09;;;;;;;;;;;;;;;14.27;35.67;100951.06;4364991;32;19943;-73
2022/03/22 11:17:36;;;;;;;;;;;;;;;14.81;35.44;100957.44;4374173;32;19973;-73
2022/03/22 11:20:04;;;;;;;;;;;;;;;15.11;35.09;100944.91;4378775;32;20592;-74
2022/03/22 11:22:32;;;;;;;;;;;;;;;15.25;34.52;100949.06;4362455;32;19958;-73
2022/03/22 11:25:08;;;;;;;;;;;;;;;15.29;34.49;100941.28;4385380;32;19949;-73
2022/03/22 11:27:35;;;;;;;;;;;;;;;15.56;33.91;100942.47;4385413;32;19944;-74
2022/03/22 11:30:06;;;;;;;;;;;;;;;15.60;33.89;100938.25;4378769;32;20332;-73
2022/03/22 11:35:18;;;;;;;;;;;;;;;15.62;33.98;100922.53;4379419;32;19943;-72
2022/03/22 11:37:55;;;;;;;26.27;11.23;;;;;;;15.83;34.80;100942.03;4369227;32;19934;-72
2022/03/22 11:43:11;;;;;;;34.13;12.18;;;;;;;15.75;33.39;100917.94;4369949;32;20059;-72
2022/03/22 11:45:50;;;;;;;25.42;11.80;;;;;;;15.99;33.87;100926.88;4377641;32;20086;-73
2022/03/22 11:48:18;;;;;;;22.83;12.90;;;;;;;15.59;33.30;100920.28;4383879;32;20077;-72
2022/03/22 11:50:45;;;;;;;27.15;11.68;;;;;;;15.78;33.53;100917.47;4385187;32;20364;-74
2022/03/22 11:53:20;;;;;;;29.17;11.32;;;;;;;16.34;33.48;100883.28;4370477;32;20076;-75
2022/03/22 11:55:51;;;;;;;20.02;10.13;;;;;;;16.90;33.30;100912.63;4367741;32;20796;-72
2022/03/22 11:58:20;;;;;;;26.87;13.35;;;;;;;17.00;32.17;100901.87;4369765;32;20073;-73
2022/03/22 12:00:55;;;;;;;24.80;11.55;;;;;;;16.51;31.99;100909.69;4370782;32;20051;-73
2022/03/22 12:03:29;;;;;;;20.67;11.65;;;;;;;16.74;33.16;100872.56;4371449;32;20076;-73
2022/03/22 12:05:58;;;;;;;21.35;11.30;;;;;;;16.77;31.97;100863.91;4359666;32;20398;-73
2022/03/22 12:08:26;;;;;;;26.73;10.80;;;;;;;17.12;31.93;100895.53;4372544;32;20044;-73
2022/03/22 12:10:59;;;;;;;17.05;9.85;;;;;;;17.50;31.68;100897.47;4372582;32;20117;-75
2022/03/22 12:13:44;;;;;;;18.45;10.63;;;;;;;17.47;30.69;100899.88;4372171;32;20047;-73
2022/03/22 12:16:10;;;;;;;18.60;11.10;;;;;;;17.24;30.94;100902.53;4372751;32;20084;-74
2022/03/22 12:18:40;;;;;;;20.52;11.57;;;;;;;17.01;30.46;100870.09;4372970;32;20133;-72
2022/03/22 12:21:17;;;;;;;19.08;11.25;;;;;;;16.63;31.71;100845.19;4371653;32;20204;-73
2022/03/22 12:23:45;;;;;;;24.52;10.95;;;;;;;17.31;31.59;100888.78;4359696;32;20053;-72
2022/03/22 12:26:12;;;;;;;28.83;11.57;;;;;;;17.70;30.65;100856.09;4372928;32;20048;-72
2022/03/22 12:28:52;;;;;;;24.90;11.38;;;;;;;17.48;31.39;100874.31;4372734;32;20438;-73
2022/03/22 12:31:21;;;;;;;21.98;10.82;;;;;;;17.32;31.49;100887.69;4371045;32;20364;-72
2022/03/22 12:33:51;;;;;;;20.23;10.55;;;;;;;17.31;31.45;100875.19;4372528;32;20028;-72
2022/03/22 12:36:21;;;;;;;22.98;11.02;;;;;;;16.97;30.56;100842.53;4369309;32;20052;-73
2022/03/22 12:38:47;;;;;;;21.58;10.90;;;;;;;16.94;30.72;100874.84;4369904;32;20045;-75
2022/03/22 12:41:14;;;;;;;20.08;11.00;;;;;;;17.04;31.28;100870.41;4372206;32;20597;-73
2022/03/22 12:43:45;;;;;;;25.10;12.15;;;;;;;17.17;30.99;100858.34;4372571;32;20065;-73
2022/03/22 12:46:15;;;;;;;20.87;11.23;;;;;;;16.84;30.96;100826.50;4371948;32;20074;-74
2022/03/22 12:48:41;;;;;;;19.73;9.55;;;;;;;17.00;30.78;100820.25;4369675;32;20150;-75
2022/03/22 12:51:11;;;;;;;19.60;11.30;;;;;;;17.76;30.32;100855.09;4370616;32;20069;-74
2022/03/22 12:53:37;;;;;;;17.55;9.90;;;;;;;17.78;29.57;100863.81;4372695;32;20390;-73
2022/03/22 12:56:18;;;;;;;26.85;9.77;;;;;;;17.88;29.77;100796.94;4370716;32;20087;-72
2022/03/22 12:58:45;;;;;;;18.37;10.73;;;;;;;18.22;29.27;100854.00;4355890;32;20024;-72
2022/03/22 13:01:12;;;;;;;22.80;10.18;;;;;;;17.08;29.81;100805.41;4371453;32;20080;-73
2022/03/22 13:03:38;;;;;;;15.27;9.48;;;;;;;18.33;29.30;100814.84;4372463;32;20024;-72
2022/03/22 13:06:08;;;;;;;20.08;9.43;;;;;;;17.71;29.68;100852.31;4370462;32;20047;-72
2022/03/22 13:11:27;;;;;;;22.42;10.63;;;;;;;18.25;30.10;100845.31;4371767;32;20382;-73
2022/03/22 13:16:41;;;;;;;27.45;9.75;;;;;;;18.80;29.87;100803.25;4370701;32;20043;-74
2022/03/22 13:19:07;;;;;;;18.25;10.02;;;;;;;18.56;29.08;100807.44;4376740;32;20077;-72
2022/03/22 13:21:38;;;;;;;22.62;10.43;;;;;;;18.36;29.55;100814.34;4381279;32;20175;-73
2022/03/22 13:24:07;;;;;;;22.17;10.13;;;;;;;17.77;29.76;100840.41;4385676;32;20035;-73
2022/03/22 13:26:35;;;;;;;22.92;10.80;;;;;;;17.75;29.96;100807.13;4373000;32;20405;-73